Time;durP1;ratioP1;P1;durP2;ratioP2;P2;SDS_P1;SDS_P2;PMS_P1;PMS_P2;Temp;Humidity;BMP_temperature;BMP_pressure;BME280_temperature;BME280_humidity;BME280_pressure;Samples;Min_cycle;Max_cycle;Signal;HPM_P1;HPM_P2
2023/09/16 00:02:20;;;;;;;9.15;8.13;;;14.10;99.90;;;;;;4996789;28;20034;-79
2023/09/16 00:04:46;;;;;;;12.65;8.52;;;14.10;99.90;;;;;;4997088;28;20463;-79
2023/09/16 00:07:12;;;;;;;10.98;8.70;;;14.10;99.90;;;;;;4995849;28;20042;-79
2023/09/16 00:09:38;;;;;;;12.57;8.13;;;14.10;99.90;;;;;;4996311;28;20042;-80
2023/09/16 00:12:04;;;;;;;10.38;7.57;;;14.00;99.90;;;;;;4996760;28;20089;-80
2023/09/16 00:14:29;;;;;;;9.52;7.60;;;14.00;99.90;;;;;;4996266;28;20513;-79
2023/09/16 00:16:58;;;;;;;8.52;6.82;;;14.00;99.90;;;;;;4979524;28;20038;-79
2023/09/16 00:19:23;;;;;;;8.32;6.68;;;13.90;99.90;;;;;;4994767;28;20128;-79
2023/09/16 00:21:49;;;;;;;9.13;6.55;;;13.90;99.90;;;;;;4995867;28;20073;-79
2023/09/16 00:24:14;;;;;;;7.97;6.22;;;13.90;99.90;;;;;;4996421;28;20034;-79
2023/09/16 00:26:41;;;;;;;7.57;6.20;;;13.80;99.90;;;;;;4996376;28;20061;-79
2023/09/16 00:29:06;;;;;;;9.45;6.90;;;13.70;99.90;;;;;;4995914;28;20034;-79
2023/09/16 00:31:33;;;;;;;9.68;7.30;;;13.70;99.90;;;;;;4995678;28;20034;-79
2023/09/16 00:33:59;;;;;;;8.13;6.85;;;13.60;99.90;;;;;;4995995;28;20176;-78
2023/09/16 00:36:24;;;;;;;9.43;7.55;;;13.60;99.90;;;;;;4994504;28;20129;-79
2023/09/16 00:38:50;;;;;;;10.15;7.47;;;13.50;99.90;;;;;;4995372;28;20188;-79
2023/09/16 00:41:16;;;;;;;12.68;6.82;;;13.50;99.90;;;;;;4979914;28;20506;-79
2023/09/16 00:43:41;;;;;;;7.30;6.07;;;13.50;99.90;;;;;;4995750;28;20113;-79
2023/09/16 00:46:07;;;;;;;7.70;6.00;;;13.50;99.90;;;;;;4995670;28;20036;-79
2023/09/16 00:48:33;;;;;;;8.35;5.80;;;13.40;99.90;;;;;;4995497;28;20173;-79
2023/09/16 00:50:59;;;;;;;8.60;6.10;;;13.50;99.90;;;;;;4995644;28;20039;-79
2023/09/16 00:53:26;;;;;;;9.00;5.93;;;13.40;99.90;;;;;;4995282;28;20031;-79
2023/09/16 00:55:52;;;;;;;7.85;6.25;;;13.40;99.90;;;;;;4994774;28;20042;-79
2023/09/16 00:58:17;;;;;;;8.40;6.30;;;13.30;99.90;;;;;;4995753;28;20042;-78
2023/09/16 01:00:45;;;;;;;7.85;6.10;;;13.30;99.90;;;;;;4995186;28;20046;-78
2023/09/16 01:03:11;;;;;;;7.88;6.53;;;13.30;99.90;;;;;;4992740;28;20427;-79
2023/09/16 01:05:37;;;;;;;8.57;7.22;;;13.20;99.90;;;;;;4992464;28;20085;-81
2023/09/16 01:08:03;;;;;;;8.85;7.40;;;13.20;99.90;;;;;;4992950;28;20042;-80
2023/09/16 01:10:29;;;;;;;8.57;7.25;;;13.10;99.90;;;;;;4992980;28;20088;-78
2023/09/16 01:12:55;;;;;;;10.57;8.25;;;13.20;99.90;;;;;;4993106;28;20046;-78
2023/09/16 01:15:22;;;;;;;8.57;7.53;;;13.20;99.90;;;;;;4992545;28;20112;-79
2023/09/16 01:18:27;;;;;;;8.60;6.03;;;13.20;99.90;;;;;;4992114;28;20042;-80
2023/09/16 01:20:55;;;;;;;9.85;7.57;;;13.10;99.90;;;;;;4975313;28;20053;-79
2023/09/16 01:23:21;;;;;;;11.23;7.18;;;13.10;99.90;;;;;;4991795;28;20038;-79
2023/09/16 01:25:46;;;;;;;10.15;7.15;;;13.00;99.90;;;;;;4991814;28;20125;-79
2023/09/16 01:28:12;;;;;;;9.35;7.70;;;13.10;99.90;;;;;;4991936;28;20078;-80
2023/09/16 01:30:44;;;;;;;9.13;7.13;;;13.00;99.90;;;;;;4992234;28;20038;-79
2023/09/16 01:33:34;;;;;;;9.48;7.40;;;13.00;99.90;;;;;;4975455;28;20073;-79
2023/09/16 01:36:06;;;;;;;10.75;7.97;;;13.00;99.90;;;;;;5008072;28;20437;-79
2023/09/16 01:38:34;;;;;;;7.68;6.80;;;13.00;99.90;;;;;;4991355;28;20046;-80
2023/09/16 01:41:02;;;;;;;10.88;7.53;;;12.90;99.90;;;;;;4992147;28;20046;-78
2023/09/16 01:43:27;;;;;;;10.43;7.80;;;12.90;99.90;;;;;;4992029;28;20117;-79
2023/09/16 01:45:53;;;;;;;9.82;7.68;;;12.90;99.90;;;;;;4991731;28;20466;-79
2023/09/16 01:48:18;;;;;;;11.10;7.55;;;12.90;99.90;;;;;;4991271;28;20036;-80
2023/09/16 01:50:45;;;;;;;8.85;6.95;;;12.90;99.90;;;;;;4992791;28;20045;-79
2023/09/16 01:53:10;;;;;;;9.23;6.90;;;12.90;99.90;;;;;;4968381;28;20034;-79
2023/09/16 01:55:37;;;;;;;6.95;6.07;;;12.90;99.90;;;;;;4991816;28;20100;-79
2023/09/16 01:58:03;;;;;;;6.60;5.75;;;12.80;99.90;;;;;;4991001;28;20113;-80
2023/09/16 02:00:29;;;;;;;7.00;6.30;;;12.70;99.90;;;;;;4991256;28;20045;-80
2023/09/16 02:02:54;;;;;;;8.63;6.25;;;12.70;99.90;;;;;;4968589;28;20038;-80
2023/09/16 02:05:20;;;;;;;8.52;7.05;;;12.70;99.90;;;;;;4992317;28;20109;-79
2023/09/16 02:07:46;;;;;;;9.43;6.72;;;12.70;99.90;;;;;;4992154;28;20046;-79
2023/09/16 02:10:11;;;;;;;7.45;6.65;;;12.70;99.90;;;;;;4990439;28;20173;-80
2023/09/16 02:12:37;;;;;;;8.40;6.43;;;12.70;99.90;;;;;;4991287;28;20441;-80
2023/09/16 02:15:06;;;;;;;7.47;6.63;;;12.70;99.90;;;;;;4989375;28;21253;-80
2023/09/16 02:17:31;;;;;;;8.35;6.38;;;12.60;99.90;;;;;;4991843;28;20413;-79
2023/09/16 02:19:57;;;;;;;7.82;6.68;;;12.60;99.90;;;;;;4991211;28;20031;-80
2023/09/16 02:22:23;;;;;;;9.63;7.00;;;12.60;99.90;;;;;;4991215;28;20192;-80
2023/09/16 02:24:48;;;;;;;8.55;7.00;;;12.60;99.90;;;;;;4990612;28;20034;-80
2023/09/16 02:27:14;;;;;;;7.25;6.47;;;12.60;99.90;;;;;;4991569;28;20042;-80
2023/09/16 02:29:39;;;;;;;9.25;7.20;;;12.60;99.90;;;;;;4989695;28;20497;-80
2023/09/16 02:32:05;;;;;;;8.10;6.93;;;12.60;99.90;;;;;;4990570;28;20130;-81
2023/09/16 02:34:33;;;;;;;8.25;6.53;;;12.60;99.90;;;;;;4990783;28;20034;-80
2023/09/16 02:36:59;;;;;;;9.65;7.15;;;12.60;99.90;;;;;;4985018;28;20053;-80
2023/09/16 02:39:25;;;;;;;10.85;7.63;;;12.60;99.90;;;;;;4991496;28;20042;-80
2023/09/16 02:41:50;;;;;;;11.18;7.63;;;12.50;99.90;;;;;;5007021;28;20461;-80
2023/09/16 02:44:16;;;;;;;7.90;5.70;;;12.50;99.90;;;;;;4989777;28;20038;-80
2023/09/16 02:46:41;;;;;;;10.43;6.05;;;12.50;99.90;;;;;;4990068;28;20053;-80
2023/09/16 02:49:07;;;;;;;8.55;6.00;;;12.50;99.90;;;;;;4990460;28;20038;-79
2023/09/16 02:51:33;;;;;;;26.90;6.97;;;12.40;99.90;;;;;;4973325;28;20034;-79
2023/09/16 02:53:58;;;;;;;67.63;8.43;;;12.40;99.90;;;;;;4990291;28;20129;-80
2023/09/16 02:56:24;;;;;;;24.15;5.95;;;12.40;99.90;;;;;;4990872;28;20038;-80
2023/09/16 02:58:49;;;;;;;21.50;6.78;;;12.40;99.90;;;;;;4991191;28;20041;-79
2023/09/16 03:01:15;;;;;;;6.82;6.13;;;12.30;99.90;;;;;;4988776;28;20068;-80
2023/09/16 03:03:40;;;;;;;7.93;7.13;;;12.20;99.90;;;;;;4991085;28;20049;-79
2023/09/16 03:06:06;;;;;;;8.43;6.75;;;12.20;99.90;;;;;;4989889;28;20039;-80
2023/09/16 03:08:32;;;;;;;7.93;6.30;;;12.20;99.90;;;;;;4990858;28;20050;-80
2023/09/16 03:11:03;;;;;;;7.07;6.38;;;12.20;99.90;;;;;;4991265;28;20049;-79
2023/09/16 03:13:28;;;;;;;7.80;5.45;;;12.20;99.90;;;;;;4989364;28;20030;-80
2023/09/16 03:16:21;;;;;;;7.70;6.47;;;12.20;99.90;;;;;;4989863;28;20100;-80
2023/09/16 03:18:52;;;;;;;6.45;5.85;;;12.20;99.90;;;;;;4990326;28;20103;-80
2023/09/16 03:21:19;;;;;;;6.13;5.53;;;12.10;99.90;;;;;;4988612;28;20080;-80
2023/09/16 03:23:45;;;;;;;6.82;4.93;;;12.00;99.90;;;;;;4988725;28;20494;-80
2023/09/16 03:26:12;;;;;;;7.22;6.50;;;12.00;99.90;;;;;;4989020;28;20064;-79
2023/09/16 03:28:40;;;;;;;9.38;7.60;;;12.00;99.90;;;;;;4990161;28;20378;-80
2023/09/16 03:31:06;;;;;;;9.27;7.28;;;12.00;99.90;;;;;;4990240;28;20038;-80
2023/09/16 03:33:31;;;;;;;6.40;5.72;;;12.00;99.90;;;;;;4990076;28;20176;-79
2023/09/16 03:35:57;;;;;;;8.90;4.63;;;12.00;99.90;;;;;;4989463;28;20041;-79
2023/09/16 03:38:25;;;;;;;4.53;4.00;;;12.10;99.90;;;;;;4988986;28;20030;-80
2023/09/16 03:40:51;;;;;;;4.57;4.03;;;12.00;99.90;;;;;;4990595;28;20509;-80
2023/09/16 03:43:17;;;;;;;5.53;4.90;;;12.00;99.90;;;;;;4991030;28;20046;-80
2023/09/16 03:45:43;;;;;;;11.13;5.45;;;12.00;99.90;;;;;;4990280;28;20629;-80
2023/09/16 03:48:09;;;;;;;14.75;4.80;;;12.00;99.90;;;;;;4988840;28;20030;-81
2023/09/16 03:50:34;;;;;;;26.65;8.85;;;11.90;99.90;;;;;;4989552;28;20038;-80
2023/09/16 03:53:00;;;;;;;20.13;7.45;;;11.90;99.90;;;;;;4990409;28;20112;-79
2023/09/16 03:55:26;;;;;;;11.20;8.27;;;11.90;99.90;;;;;;4990337;28;20169;-79
2023/09/16 03:57:51;;;;;;;10.55;8.40;;;11.80;99.90;;;;;;4987568;28;20054;-79
2023/09/16 04:00:17;;;;;;;10.88;7.53;;;11.90;99.90;;;;;;4989297;28;20049;-80
2023/09/16 04:02:42;;;;;;;9.20;8.18;;;11.80;99.90;;;;;;4990478;28;20042;-80
2023/09/16 04:05:08;;;;;;;10.95;8.35;;;11.80;99.90;;;;;;4990426;28;20062;-79
2023/09/16 04:07:34;;;;;;;9.85;8.73;;;11.70;99.90;;;;;;4989161;28;20042;-80
2023/09/16 04:10:00;;;;;;;17.63;9.05;;;11.80;99.90;;;;;;4989563;28;20050;-79
2023/09/16 04:12:26;;;;;;;19.75;9.98;;;11.80;99.90;;;;;;4991916;28;20034;-79
2023/09/16 04:14:51;;;;;;;11.40;9.73;;;11.80;99.90;;;;;;4973799;28;20027;-80
2023/09/16 04:17:17;;;;;;;12.23;9.32;;;11.70;99.90;;;;;;4987929;28;20092;-80
2023/09/16 04:19:42;;;;;;;12.40;9.57;;;11.80;99.90;;;;;;4989782;28;20425;-80
2023/09/16 04:22:08;;;;;;;27.38;9.18;;;11.80;99.90;;;;;;4990051;28;20564;-79
2023/09/16 04:24:33;;;;;;;38.05;10.95;;;11.80;99.90;;;;;;4988973;28;20089;-80
2023/09/16 04:26:59;;;;;;;15.63;9.48;;;11.80;99.90;;;;;;4988233;28;20061;-80
2023/09/16 04:29:24;;;;;;;26.38;10.07;;;11.80;99.90;;;;;;4988028;28;20049;-79
2023/09/16 04:31:51;;;;;;;9.98;8.90;;;11.80;99.90;;;;;;4980288;28;20078;-79
2023/09/16 04:34:16;;;;;;;12.45;9.50;;;11.80;99.90;;;;;;4988224;28;20038;-79
2023/09/16 04:36:42;;;;;;;19.13;9.77;;;11.80;99.90;;;;;;4986601;28;20050;-79
2023/09/16 04:39:08;;;;;;;20.92;9.93;;;11.80;99.90;;;;;;4991076;28;20042;-79
2023/09/16 04:41:34;;;;;;;16.70;9.70;;;11.80;99.90;;;;;;4976557;28;20073;-79
2023/09/16 04:44:00;;;;;;;17.55;9.25;;;11.80;99.90;;;;;;4975966;28;20156;-78
2023/09/16 04:46:25;;;;;;;13.70;10.13;;;11.80;99.90;;;;;;4992263;28;20035;-79
2023/09/16 04:48:51;;;;;;;9.07;7.63;;;11.80;99.90;;;;;;4993970;28;20120;-79
2023/09/16 04:51:16;;;;;;;11.52;8.90;;;11.70;99.90;;;;;;4976821;28;20030;-79
2023/09/16 04:53:42;;;;;;;8.82;7.97;;;11.70;99.90;;;;;;4991651;28;21532;-79
2023/09/16 04:56:10;;;;;;;8.88;7.97;;;11.70;99.90;;;;;;4992892;28;20624;-80
2023/09/16 04:58:36;;;;;;;8.13;7.22;;;11.70;99.90;;;;;;4993538;28;20109;-80
2023/09/16 05:01:04;;;;;;;7.50;6.72;;;11.60;99.90;;;;;;4976291;28;20554;-80
2023/09/16 05:03:30;;;;;;;7.57;6.70;;;11.60;99.90;;;;;;4992788;28;20092;-79
2023/09/16 05:05:56;;;;;;;7.70;6.90;;;11.60;99.90;;;;;;4990934;28;20072;-80
2023/09/16 05:08:21;;;;;;;8.18;7.38;;;11.60;99.90;;;;;;4992136;28;20057;-79
2023/09/16 05:10:56;;;;;;;9.25;7.05;;;11.60;99.90;;;;;;4992159;28;20038;-80
2023/09/16 05:13:22;;;;;;;15.60;9.50;;;11.60;99.90;;;;;;4986346;28;20129;-79
2023/09/16 05:15:49;;;;;;;26.77;12.73;;;11.50;99.90;;;;;;4990815;28;20034;-80
2023/09/16 05:18:15;;;;;;;31.00;13.13;;;11.60;99.90;;;;;;4997103;28;20531;-79
2023/09/16 05:20:41;;;;;;;25.98;11.52;;;11.60;99.90;;;;;;4992215;28;20506;-80
2023/09/16 05:23:07;;;;;;;18.67;10.73;;;11.50;99.90;;;;;;4991868;28;20096;-80
2023/09/16 05:25:32;;;;;;;30.52;13.90;;;11.50;99.90;;;;;;4965012;28;20089;-80
2023/09/16 05:27:58;;;;;;;30.52;12.77;;;11.50;99.90;;;;;;4991666;28;20462;-80
2023/09/16 05:30:23;;;;;;;33.08;14.50;;;11.50;99.90;;;;;;4991446;28;20113;-81
2023/09/16 05:32:49;;;;;;;47.13;17.35;;;11.50;99.90;;;;;;4971206;28;20398;-79
2023/09/16 05:35:14;;;;;;;61.20;21.30;;;11.50;99.90;;;;;;4992936;28;20082;-80
2023/09/16 05:37:40;;;;;;;67.22;23.70;;;11.50;99.90;;;;;;4988338;28;20045;-80
2023/09/16 05:40:07;;;;;;;63.70;23.05;;;11.50;99.90;;;;;;4992083;28;20445;-82
2023/09/16 05:42:32;;;;;;;50.42;19.60;;;11.50;99.90;;;;;;4990979;28;20141;-81
2023/09/16 05:45:00;;;;;;;57.80;22.63;;;11.60;99.90;;;;;;4989463;28;20121;-80
2023/09/16 05:47:29;;;;;;;39.85;17.30;;;11.60;99.90;;;;;;4990411;28;20413;-79
2023/09/16 05:49:54;;;;;;;32.30;14.80;;;11.70;99.90;;;;;;4992623;28;20561;-80
2023/09/16 05:52:20;;;;;;;24.75;12.82;;;11.70;99.90;;;;;;4993177;28;20117;-80
2023/09/16 05:54:46;;;;;;;27.60;13.45;;;11.70;99.90;;;;;;4992826;28;20044;-80
2023/09/16 05:57:12;;;;;;;26.70;13.98;;;11.80;99.90;;;;;;4989122;28;20507;-81
2023/09/16 05:59:37;;;;;;;30.75;15.52;;;11.90;99.90;;;;;;4991832;28;20541;-79
2023/09/16 06:02:03;;;;;;;36.33;16.63;;;12.00;99.90;;;;;;4987585;28;20121;-80
2023/09/16 06:04:30;;;;;;;40.17;17.80;;;12.10;99.90;;;;;;4970640;28;20044;-80
2023/09/16 06:06:55;;;;;;;37.03;16.65;;;12.10;99.90;;;;;;4988993;28;20116;-80
2023/09/16 06:09:21;;;;;;;29.48;16.23;;;12.20;99.90;;;;;;4990621;28;20292;-81
2023/09/16 06:11:46;;;;;;;21.63;14.93;;;12.30;99.90;;;;;;4988995;28;20073;-79
2023/09/16 06:14:12;;;;;;;23.02;14.55;;;12.40;99.90;;;;;;4990717;28;20363;-80
2023/09/16 06:16:37;;;;;;;26.50;13.80;;;12.40;99.90;;;;;;4989742;28;20034;-81
2023/09/16 06:19:03;;;;;;;21.83;14.05;;;12.50;99.90;;;;;;4997543;28;20026;-80
2023/09/16 06:21:30;;;;;;;25.65;15.70;;;12.60;99.90;;;;;;4992667;28;20031;-80
2023/09/16 06:23:55;;;;;;;24.38;16.38;;;12.70;99.90;;;;;;4992715;28;20042;-80
2023/09/16 06:26:21;;;;;;;22.00;15.85;;;12.80;99.90;;;;;;4990138;28;20065;-80
2023/09/16 06:28:46;;;;;;;20.65;15.52;;;12.90;99.90;;;;;;4991893;28;20074;-79
2023/09/16 06:31:12;;;;;;;18.75;14.35;;;13.00;99.90;;;;;;4975172;28;20097;-79
2023/09/16 06:33:37;;;;;;;21.85;16.33;;;13.00;99.90;;;;;;4989835;28;20035;-81
2023/09/16 06:36:03;;;;;;;20.58;15.45;;;13.10;99.90;;;;;;4974678;28;20069;-80
2023/09/16 06:38:29;;;;;;;22.20;15.55;;;13.20;99.90;;;;;;4992145;28;20473;-80
2023/09/16 06:40:54;;;;;;;19.90;16.15;;;13.30;99.90;;;;;;4990994;28;20510;-80
2023/09/16 06:43:21;;;;;;;19.08;15.98;;;13.40;99.90;;;;;;4990993;28;20042;-80
2023/09/16 06:45:48;;;;;;;19.85;15.55;;;13.40;99.90;;;;;;4991320;28;20442;-80
2023/09/16 06:48:14;;;;;;;17.52;15.23;;;13.50;99.90;;;;;;4992672;28;20421;-80
2023/09/16 06:50:39;;;;;;;17.50;14.80;;;13.60;99.90;;;;;;4992646;28;20034;-80
2023/09/16 06:53:05;;;;;;;19.02;14.93;;;13.70;99.90;;;;;;4992643;28;20052;-80
2023/09/16 06:55:30;;;;;;;19.50;16.50;;;13.80;99.90;;;;;;4992727;28;20080;-80
2023/09/16 06:57:56;;;;;;;17.98;16.08;;;13.90;99.90;;;;;;4992318;28;20502;-80
2023/09/16 07:00:21;;;;;;;17.13;15.30;;;14.00;99.90;;;;;;4991355;28;20049;-79
2023/09/16 07:02:47;;;;;;;19.58;16.52;;;14.20;99.90;;;;;;4991640;28;20517;-79
2023/09/16 07:05:13;;;;;;;18.50;16.00;;;14.30;99.90;;;;;;4990421;28;20038;-79
2023/09/16 07:07:38;;;;;;;19.50;17.45;;;14.50;99.90;;;;;;4973911;28;20548;-79
2023/09/16 07:10:04;;;;;;;19.50;16.75;;;14.60;99.90;;;;;;4990926;28;20039;-79
2023/09/16 07:12:30;;;;;;;17.88;15.63;;;14.80;99.90;;;;;;4975522;28;20065;-80
2023/09/16 07:14:55;;;;;;;19.40;16.13;;;14.90;99.90;;;;;;4990138;28;20251;-79
2023/09/16 07:17:21;;;;;;;18.10;16.20;;;15.10;99.90;;;;;;4990316;28;20038;-79
2023/09/16 07:19:46;;;;;;;22.10;17.88;;;15.20;99.90;;;;;;4981428;28;20100;-80
2023/09/16 07:22:12;;;;;;;17.38;15.57;;;15.40;99.90;;;;;;4991168;28;20061;-79
2023/09/16 07:24:38;;;;;;;17.75;15.70;;;15.50;99.90;;;;;;4991324;28;20430;-79
2023/09/16 07:27:04;;;;;;;16.85;15.02;;;15.60;99.90;;;;;;4991005;28;20410;-80
2023/09/16 07:29:29;;;;;;;19.33;15.20;;;15.70;99.90;;;;;;4991126;28;20042;-79
2023/09/16 07:31:55;;;;;;;17.70;15.38;;;15.90;99.90;;;;;;4978892;28;20026;-79
2023/09/16 07:34:22;;;;;;;18.02;15.10;;;16.00;99.90;;;;;;4975130;28;20437;-79
2023/09/16 07:36:48;;;;;;;16.58;14.30;;;16.10;99.90;;;;;;4991213;28;20042;-79
2023/09/16 07:39:13;;;;;;;15.13;13.52;;;16.30;99.90;;;;;;4991690;28;20082;-78
2023/09/16 07:41:40;;;;;;;16.75;14.15;;;16.40;99.90;;;;;;4987880;28;20050;-78
2023/09/16 07:44:05;;;;;;;15.32;13.30;;;16.50;99.90;;;;;;4991163;28;20038;-79
2023/09/16 07:46:31;;;;;;;16.08;13.40;;;16.60;99.90;;;;;;4990235;28;20061;-78
2023/09/16 07:48:57;;;;;;;16.00;13.02;;;16.80;99.90;;;;;;4990890;28;20496;-78
2023/09/16 07:51:22;;;;;;;17.48;13.05;;;16.90;99.90;;;;;;4990324;28;20501;-78
2023/09/16 07:53:48;;;;;;;14.23;12.40;;;17.00;99.90;;;;;;4990475;28;20042;-78
2023/09/16 07:56:16;;;;;;;15.02;12.57;;;17.20;99.90;;;;;;4990495;28;20054;-79
2023/09/16 07:58:41;;;;;;;15.98;13.10;;;17.30;99.90;;;;;;4990931;28;20133;-79
2023/09/16 08:01:07;;;;;;;13.07;11.13;;;17.40;99.90;;;;;;4990857;28;20121;-79
2023/09/16 08:03:32;;;;;;;13.02;11.63;;;17.50;99.90;;;;;;4976729;28;20125;-79
2023/09/16 08:05:58;;;;;;;15.98;11.77;;;17.60;99.90;;;;;;4989200;28;20113;-79
2023/09/16 08:08:23;;;;;;;13.32;11.63;;;17.70;99.90;;;;;;4990283;28;20046;-79
2023/09/16 08:10:51;;;;;;;13.70;11.48;;;17.80;99.90;;;;;;4974645;28;20508;-79
2023/09/16 08:13:18;;;;;;;13.65;11.45;;;17.90;99.90;;;;;;4993760;28;20038;-79
2023/09/16 08:15:43;;;;;;;13.77;11.35;;;18.00;99.90;;;;;;4990554;28;20518;-78
2023/09/16 08:18:09;;;;;;;11.98;10.65;;;18.20;99.90;;;;;;4991831;28;20124;-79
2023/09/16 08:20:35;;;;;;;13.93;12.15;;;18.30;99.90;;;;;;4993204;28;20050;-79
2023/09/16 08:23:00;;;;;;;12.93;11.55;;;18.40;99.90;;;;;;4990473;28;20045;-79
2023/09/16 08:25:25;;;;;;;12.95;10.73;;;18.50;99.90;;;;;;4993008;28;20039;-80
2023/09/16 08:27:52;;;;;;;13.02;11.05;;;18.60;99.90;;;;;;4992068;28;20038;-79
2023/09/16 08:30:18;;;;;;;11.95;10.35;;;18.60;99.90;;;;;;4990500;28;20064;-79
2023/09/16 08:32:43;;;;;;;12.50;10.23;;;18.70;99.90;;;;;;4991774;28;20034;-80
2023/09/16 08:35:09;;;;;;;11.43;10.20;;;18.80;99.90;;;;;;5007054;28;20132;-78
2023/09/16 08:37:35;;;;;;;15.02;10.60;;;18.80;99.90;;;;;;4996192;28;20038;-79
2023/09/16 08:40:01;;;;;;;13.63;9.98;;;18.90;99.90;;;;;;4991900;28;20038;-78
2023/09/16 08:42:43;;;;;;;11.05;9.82;;;18.90;99.90;;;;;;4992024;28;20042;-79
2023/09/16 08:45:15;;;;;;;12.23;10.10;;;18.90;99.90;;;;;;4992073;28;20054;-79
2023/09/16 08:47:45;;;;;;;11.88;9.65;;;19.00;99.90;;;;;;4991488;28;20494;-78
2023/09/16 08:50:12;;;;;;;12.48;11.02;;;19.00;99.90;;;;;;4977252;28;20481;-79
2023/09/16 08:52:49;;;;;;;12.02;10.63;;;19.10;99.90;;;;;;4992029;28;20114;-78
2023/09/16 08:55:16;;;;;;;13.35;10.20;;;19.30;99.90;;;;;;4974125;28;20482;-78
2023/09/16 08:57:55;;;;;;;11.98;9.93;;;19.40;99.90;;;;;;4992859;28;20401;-78
2023/09/16 09:00:21;;;;;;;12.15;10.10;;;19.40;99.90;;;;;;4992713;28;20398;-79
2023/09/16 09:02:48;;;;;;;11.35;9.52;;;19.50;99.90;;;;;;4993390;28;20034;-79
2023/09/16 09:05:15;;;;;;;12.57;9.63;;;19.60;99.90;;;;;;4992439;28;20101;-78
2023/09/16 09:07:41;;;;;;;11.38;10.05;;;19.60;99.90;;;;;;4991362;28;20085;-78
2023/09/16 09:10:11;;;;;;;11.90;10.57;;;19.70;99.90;;;;;;4993403;28;20045;-77
2023/09/16 09:12:39;;;;;;;11.60;9.45;;;19.70;99.90;;;;;;4993216;28;20118;-78
2023/09/16 09:15:08;;;;;;;9.82;8.82;;;19.80;99.90;;;;;;4990115;28;20031;-78
2023/09/16 09:17:44;;;;;;;9.95;8.25;;;19.80;99.90;;;;;;4990738;28;20054;-77
2023/09/16 09:20:16;;;;;;;10.95;8.85;;;19.90;99.90;;;;;;4993002;28;20061;-80
2023/09/16 09:22:42;;;;;;;10.60;9.50;;;20.00;99.90;;;;;;4972275;28;20046;-81
2023/09/16 09:25:08;;;;;;;11.32;9.05;;;20.10;99.90;;;;;;4993131;28;20410;-79
2023/09/16 09:27:34;;;;;;;10.77;8.63;;;20.10;99.90;;;;;;4989565;28;20057;-80
2023/09/16 09:29:59;;;;;;;11.35;7.72;;;20.20;99.90;;;;;;4990195;28;20038;-79
2023/09/16 09:32:29;;;;;;;13.77;7.80;;;20.20;99.90;;;;;;4997423;28;20035;-80
2023/09/16 09:34:55;;;;;;;9.38;7.30;;;20.20;99.90;;;;;;4989480;28;20030;-81
2023/09/16 09:37:20;;;;;;;9.23;6.63;;;20.30;99.90;;;;;;4990704;28;20038;-81
2023/09/16 09:40:05;;;;;;;9.32;6.70;;;20.40;99.90;;;;;;4993995;28;20105;-81
2023/09/16 09:42:31;;;;;;;8.82;6.55;;;20.40;99.90;;;;;;5006358;28;20034;-82
2023/09/16 09:45:01;;;;;;;8.73;6.43;;;20.50;99.90;;;;;;4991928;28;20588;-81
2023/09/16 09:47:27;;;;;;;7.30;6.22;;;20.60;99.90;;;;;;4997419;28;20038;-80
2023/09/16 09:49:53;;;;;;;9.38;6.47;;;20.60;99.90;;;;;;4994618;28;20443;-81
2023/09/16 09:52:18;;;;;;;8.18;6.30;;;20.60;99.90;;;;;;4996745;28;20106;-82
2023/09/16 09:54:45;;;;;;;7.35;5.40;;;20.70;99.90;;;;;;4995560;28;20034;-82
2023/09/16 09:57:11;;;;;;;10.38;6.20;;;20.70;99.90;;;;;;4978107;28;20421;-82
2023/09/16 09:59:36;;;;;;;9.65;6.05;;;20.80;99.90;;;;;;4994133;28;20050;-80
2023/09/16 10:02:03;;;;;;;6.95;5.85;;;20.90;99.90;;;;;;4992526;28;20042;-80
2023/09/16 10:04:30;;;;;;;9.32;6.50;;;21.00;99.90;;;;;;4993174;28;20042;-82
2023/09/16 10:06:57;;;;;;;9.13;6.07;;;21.00;99.90;;;;;;4994891;28;20050;-82
2023/09/16 10:09:23;;;;;;;10.20;6.88;;;21.10;99.90;;;;;;4991933;28;20038;-80
2023/09/16 10:11:48;;;;;;;8.82;6.57;;;21.10;99.90;;;;;;4996747;28;20045;-82
2023/09/16 10:14:14;;;;;;;6.78;5.60;;;21.20;99.90;;;;;;4996210;28;20038;-80
2023/09/16 10:16:40;;;;;;;7.43;6.20;;;21.30;99.90;;;;;;4995711;28;20042;-81
2023/09/16 10:19:05;;;;;;;7.90;5.88;;;21.40;99.90;;;;;;4986714;28;20034;-80
2023/09/16 10:21:31;;;;;;;7.20;6.25;;;21.40;99.90;;;;;;4991651;28;20049;-81
2023/09/16 10:23:57;;;;;;;9.93;5.82;;;21.50;99.90;;;;;;4995284;28;20088;-82
2023/09/16 10:26:22;;;;;;;8.20;5.68;;;21.50;99.90;;;;;;4979332;28;20375;-80
2023/09/16 10:28:52;;;;;;;7.47;5.78;;;21.60;99.90;;;;;;4995406;28;20042;-82
2023/09/16 10:31:18;;;;;;;9.82;6.13;;;21.60;99.90;;;;;;4994740;28;20046;-80
2023/09/16 10:33:44;;;;;;;9.57;6.28;;;21.70;99.90;;;;;;4993609;28;20034;-80
2023/09/16 10:36:11;;;;;;;9.95;5.85;;;21.70;99.90;;;;;;4970857;28;20093;-81
2023/09/16 10:38:38;;;;;;;6.32;5.22;;;21.80;99.90;;;;;;4991020;28;20043;-81
2023/09/16 10:41:06;;;;;;;9.23;6.18;;;21.90;99.90;;;;;;4992171;28;20129;-81
2023/09/16 10:43:32;;;;;;;8.10;5.55;;;22.00;99.90;;;;;;4988500;28;20402;-79
2023/09/16 10:45:58;;;;;;;7.65;5.30;;;22.10;99.90;;;;;;4989165;28;20050;-81
2023/09/16 10:48:26;;;;;;;7.10;5.13;;;22.20;99.90;;;;;;4990985;28;20490;-81
2023/09/16 10:50:59;;;;;;;8.90;5.20;;;22.30;99.90;;;;;;4988480;28;20042;-82
2023/09/16 10:53:36;;;;;;;8.45;5.50;;;22.30;99.90;;;;;;4993808;28;20045;-82
2023/09/16 10:56:34;;;;;;;7.18;5.20;;;22.40;99.90;;;;;;4994284;28;20077;-81
2023/09/16 10:59:07;;;;;;;8.77;5.10;;;22.50;99.90;;;;;;4991160;28;20042;-82
2023/09/16 11:01:47;;;;;;;9.32;6.18;;;22.70;99.90;;;;;;4993962;28;20486;-82
2023/09/16 11:04:17;;;;;;;8.27;5.65;;;22.80;99.90;;;;;;4989974;28;20041;-79
2023/09/16 11:06:47;;;;;;;7.45;5.78;;;22.90;99.90;;;;;;4990488;28;20054;-79
2023/09/16 11:09:14;;;;;;;5.93;3.90;;;22.90;99.90;;;;;;4989466;28;20038;-78
2023/09/16 11:11:40;;;;;;;6.03;3.72;;;23.00;99.90;;;;;;4989021;28;20498;-78
2023/09/16 11:14:06;;;;;;;7.75;4.40;;;23.00;99.90;;;;;;4990669;28;20117;-78
2023/09/16 11:16:43;;;;;;;7.28;4.07;;;23.10;99.90;;;;;;4990737;28;20129;-78
2023/09/16 11:19:12;;;;;;;9.05;3.90;;;23.00;99.90;;;;;;4985653;28;20056;-78
2023/09/16 11:21:38;;;;;;;4.22;3.08;;;23.20;99.90;;;;;;4991287;28;20104;-78
2023/09/16 11:24:04;;;;;;;5.13;3.40;;;23.30;99.90;;;;;;4985946;28;20046;-79
2023/09/16 11:26:36;;;;;;;6.10;3.30;;;23.30;99.90;;;;;;4987832;28;20108;-77
2023/09/16 11:29:01;;;;;;;6.53;3.65;;;23.50;99.90;;;;;;4988743;28;20042;-78
2023/09/16 11:31:27;;;;;;;5.25;3.42;;;23.50;99.90;;;;;;4989083;28;20042;-78
2023/09/16 11:33:59;;;;;;;6.35;3.40;;;23.60;99.90;;;;;;4975250;28;20045;-79
2023/09/16 11:36:32;;;;;;;4.28;3.03;;;23.70;99.90;;;;;;4986169;28;20031;-78
2023/09/16 11:39:06;;;;;;;6.57;2.30;;;23.80;99.90;;;;;;4992482;28;20499;-77
2023/09/16 11:41:32;;;;;;;6.43;3.00;;;23.90;99.90;;;;;;4989626;28;20125;-78
2023/09/16 11:43:58;;;;;;;3.10;2.30;;;24.00;99.90;;;;;;4990140;28;20066;-78
2023/09/16 11:46:25;;;;;;;5.03;2.60;;;23.90;99.90;;;;;;4988485;28;20671;-78
2023/09/16 11:48:57;;;;;;;5.28;2.95;;;23.70;99.90;;;;;;4991378;28;20045;-81
2023/09/16 11:51:24;;;;;;;4.45;2.63;;;23.50;99.90;;;;;;4994918;28;20099;-81
2023/09/16 11:53:54;;;;;;;3.78;2.50;;;23.40;99.90;;;;;;5001714;28;20582;-80
2023/09/16 11:56:26;;;;;;;5.85;2.80;;;23.30;99.90;;;;;;4994009;28;20052;-80
2023/09/16 11:58:54;;;;;;;5.15;2.67;;;23.20;99.90;;;;;;4990781;28;20038;-80
2023/09/16 12:01:28;;;;;;;5.13;3.30;;;23.20;99.90;;;;;;4993663;28;20066;-80
2023/09/16 12:03:55;;;;;;;6.38;3.67;;;23.30;99.90;;;;;;4996399;28;20398;-80
2023/09/16 12:06:25;;;;;;;5.03;3.80;;;23.40;99.90;;;;;;4998375;28;20065;-80
2023/09/16 12:08:53;;;;;;;3.85;3.00;;;23.60;99.90;;;;;;4993969;28;20445;-80
2023/09/16 12:11:18;;;;;;;4.40;3.40;;;23.90;99.90;;;;;;4991843;28;20030;-80
2023/09/16 12:13:44;;;;;;;4.30;2.75;;;24.20;99.90;;;;;;4990464;28;20097;-80
2023/09/16 12:16:10;;;;;;;6.10;3.20;;;24.40;99.90;;;;;;4990817;28;20038;-79
2023/09/16 12:18:36;;;;;;;5.38;3.50;;;24.80;99.90;;;;;;4989000;28;20052;-81
2023/09/16 12:21:04;;;;;;;4.60;3.10;;;25.10;99.90;;;;;;4974112;28;20046;-81
2023/09/16 12:23:30;;;;;;;6.68;3.38;;;25.10;99.90;;;;;;4994012;28;20050;-81
2023/09/16 12:25:57;;;;;;;3.97;2.88;;;25.30;99.90;;;;;;4996389;28;20057;-81
2023/09/16 12:28:24;;;;;;;5.95;3.35;;;25.60;99.90;;;;;;4996800;28;20042;-81
2023/09/16 12:30:51;;;;;;;5.35;3.00;;;25.80;99.90;;;;;;4989186;28;20054;-82
2023/09/16 12:33:21;;;;;;;4.05;3.10;;;25.80;99.90;;;;;;4992576;28;20403;-81
2023/09/16 12:35:47;;;;;;;5.57;3.13;;;25.70;99.90;;;;;;4993107;28;20074;-81
2023/09/16 12:38:15;;;;;;;4.95;2.97;;;25.60;99.90;;;;;;4988318;28;20498;-80